Time;durP1;ratioP1;P1;durP2;ratioP2;P2;SDS_P1;SDS_P2;PMS_P1;PMS_P2;Temp;Humidity;BMP_temperature;BMP_pressure;BME280_temperature;BME280_humidity;BME280_pressure;Samples;Min_cycle;Max_cycle;Signal;HPM_P1;HPM_P2
2023/03/07 00:00:35;;;;;;;;;;;;;;;2.81;100.00;99252.44;5113824;28;835;-66
2023/03/07 00:03:02;;;;;;;;;;;;;;;2.83;100.00;99250.13;5115056;28;1971;-70
2023/03/07 00:05:30;;;;;;;;;;;;;;;3.03;100.00;99242.69;5115153;28;898;-68
2023/03/07 00:07:57;;;;;;;;;;;;;;;3.11;100.00;99251.00;5114980;28;1003;-68
2023/03/07 00:10:25;;;;;;;;;;;;;;;3.12;100.00;99247.91;5114633;28;1269;-68
2023/03/07 00:12:51;;;;;;;;;;;;;;;3.21;100.00;99240.22;5114967;28;803;-67
2023/03/07 00:15:17;;;;;;;;;;;;;;;3.28;100.00;99234.09;5113471;28;875;-67
2023/03/07 00:17:44;;;;;;;;;;;;;;;3.27;100.00;99232.53;5114748;28;1151;-66
2023/03/07 00:20:13;;;;;;;;;;;;;;;3.14;100.00;99221.00;5114675;28;823;-67
2023/03/07 00:22:39;;;;;;;;;;;;;;;3.11;100.00;99227.19;5114642;28;1983;-68
2023/03/07 00:25:07;;;;;;;;;;;;;;;3.18;100.00;99221.03;5113211;28;1437;-67
2023/03/07 00:27:34;;;;;;;;;;;;;;;3.24;100.00;99212.19;5114573;28;886;-67
2023/03/07 00:30:01;;;;;;;;;;;;;;;3.20;100.00;99213.28;5114535;28;811;-67
2023/03/07 00:32:28;;;;;;;;;;;;;;;3.13;100.00;99207.72;5114520;28;815;-66
2023/03/07 00:34:55;;;;;;;;;;;;;;;3.15;100.00;99205.41;5114639;28;889;-66
2023/03/07 00:37:22;;;;;;;;;;;;;;;3.10;100.00;99201.06;5114704;28;898;-68
2023/03/07 00:39:49;;;;;;;;;;;;;;;2.98;100.00;99210.22;5114367;28;846;-65
2023/03/07 00:42:15;;;;;;;;;;;;;;;2.87;100.00;99209.25;5114180;28;1897;-65
2023/03/07 00:44:42;;;;;;;;;;;;;;;2.97;100.00;99210.59;5114277;28;811;-67
2023/03/07 00:47:08;;;;;;;;;;;;;;;3.13;100.00;99200.31;5112862;28;1270;-67
2023/03/07 00:49:35;;;;;;;;;;;;;;;3.15;100.00;99208.91;5114201;27;842;-66
2023/03/07 00:52:01;;;;;;;;;;;;;;;3.12;100.00;99201.47;5113996;28;855;-66
2023/03/07 00:54:28;;;;;;;;;;;;;;;3.14;100.00;99196.44;5113988;28;871;-66
2023/03/07 00:56:54;;;;;;;;;;;;;;;3.21;100.00;99195.75;5114002;28;834;-65
2023/03/07 00:59:21;;;;;;;;;;;;;;;3.27;100.00;99189.59;5113993;28;910;-66
2023/03/07 01:01:48;;;;;;;;;;;;;;;3.26;100.00;99192.69;5113858;28;903;-66
2023/03/07 01:04:15;;;;;;;;;;;;;;;3.34;100.00;99199.06;5113831;28;1935;-67
2023/03/07 01:06:42;;;;;;;;;;;;;;;3.33;100.00;99198.28;5112829;28;869;-65
2023/03/07 01:09:09;;;;;;;;;;;;;;;3.35;100.00;99187.78;5113728;28;1181;-67
2023/03/07 01:11:36;;;;;;;;;;;;;;;3.43;100.00;99180.44;5113746;28;862;-65
2023/03/07 01:14:04;;;;;;;;;;;;;;;3.41;100.00;99174.56;5113719;28;862;-66
2023/03/07 01:16:35;;;;;;;;;;;;;;;3.37;100.00;99174.53;5113907;28;882;-67
2023/03/07 01:19:03;;;;;;;;;;;;;;;3.30;100.00;99177.16;5113607;28;819;-63
2023/03/07 01:21:31;;;;;;;;;;;;;;;3.20;100.00;99172.31;5113591;28;862;-65
2023/03/07 01:23:57;;;;;;;;;;;;;;;3.17;100.00;99162.13;5113279;28;2025;-66
2023/03/07 01:26:26;;;;;;;;;;;;;;;3.15;100.00;99164.44;5113426;28;846;-68
2023/03/07 01:28:53;;;;;;;;;;;;;;;3.15;100.00;99159.00;5113622;28;804;-68
2023/03/07 01:31:20;;;;;;;;;;;;;;;3.18;100.00;99160.97;5113340;28;894;-66
2023/03/07 01:33:48;;;;;;;;;;;;;;;3.23;100.00;99156.00;5113242;28;857;-64
2023/03/07 01:36:28;;;;;;;;;;;;;;;3.26;100.00;99157.19;5113226;28;838;-65
2023/03/07 01:38:56;;;;;;;;;;;;;;;3.26;100.00;99154.44;5111803;28;1304;-67
2023/03/07 01:41:23;;;;;;;;;;;;;;;3.27;100.00;99147.84;5113116;28;823;-67
2023/03/07 01:43:49;;;;;;;;;;;;;;;3.20;100.00;99150.47;5113049;28;1948;-66
2023/03/07 01:46:25;;;;;;;;;;;;;;;3.22;100.00;99143.50;5112976;28;897;-66
2023/03/07 01:49:06;;;;;;;;;;;;;;;3.19;100.00;99138.75;5112965;28;967;-66
2023/03/07 01:51:33;;;;;;;;;;;;;;;3.37;100.00;99144.47;5112925;28;839;-65
2023/03/07 01:54:00;;;;;;;;;;;;;;;3.30;100.00;99144.38;5112803;28;882;-65
2023/03/07 01:56:27;;;;;;;;;;;;;;;3.21;100.00;99138.41;5113054;28;835;-67
2023/03/07 01:58:54;;;;;;;;;;;;;;;3.12;100.00;99141.41;5113131;28;874;-67
2023/03/07 02:01:21;;;;;;;;;;;;;;;2.96;100.00;99138.81;5111396;28;888;-66
2023/03/07 02:04:03;;;;;;;;;;;;;;;3.06;100.00;99135.47;5112687;28;1889;-66
2023/03/07 02:06:30;;;;;;;;;;;;;;;3.08;100.00;99131.59;5112715;28;830;-64
2023/03/07 02:08:57;;;;;;;;;;;;;;;3.08;100.00;99132.38;5112757;28;979;-68
2023/03/07 02:11:25;;;;;;;;;;;;;;;3.04;100.00;99132.31;5112358;28;1471;-67
2023/03/07 02:13:51;;;;;;;;;;;;;;;2.94;100.00;99130.19;5112453;28;914;-66
2023/03/07 02:16:19;;;;;;;;;;;;;;;2.88;100.00;99128.97;5112563;28;814;-66
2023/03/07 02:18:47;;;;;;;;;;;;;;;2.77;100.00;99138.91;5112227;28;877;-66
2023/03/07 02:21:17;;;;;;;;;;;;;;;2.61;100.00;99148.03;5112436;28;807;-66
2023/03/07 02:23:49;;;;;;;;;;;;;;;2.64;100.00;99152.75;5112157;28;1976;-66
2023/03/07 02:26:31;;;;;;;;;;;;;;;2.58;100.00;99151.50;5112318;28;811;-65
2023/03/07 02:28:58;;;;;;;;;;;;;;;2.47;100.00;99153.25;5112312;28;839;-67
2023/03/07 02:31:25;;;;;;;;;;;;;;;2.36;100.00;99149.53;5112271;28;839;-68
2023/03/07 02:33:52;;;;;;;;;;;;;;;2.42;100.00;99156.28;5110966;28;1279;-66
2023/03/07 02:36:24;;;;;;;;;;;;;;;2.48;100.00;99157.56;5112228;28;823;-65
2023/03/07 02:38:53;;;;;;;;;;;;;;;2.62;100.00;99152.34;5112098;28;815;-65
2023/03/07 02:41:23;;;;;;;;;;;;;;;2.72;100.00;99152.88;5112345;28;899;-66
2023/03/07 02:43:50;;;;;;;;;;;;;;;2.77;100.00;99155.28;5112301;28;1955;-66
2023/03/07 02:46:16;;;;;;;;;;;;;;;2.77;100.00;99153.34;5111993;28;815;-66
2023/03/07 02:48:42;;;;;;;;;;;;;;;2.80;100.00;99146.38;5112056;28;882;-66
2023/03/07 02:51:10;;;;;;;;;;;;;;;2.77;100.00;99145.16;5111879;28;921;-65
2023/03/07 02:53:37;;;;;;;;;;;;;;;2.80;100.00;99141.72;5111892;28;819;-66
2023/03/07 02:56:04;;;;;;;;;;;;;;;2.76;100.00;99143.59;5111972;28;842;-67
2023/03/07 02:58:29;;;;;;;;;;;;;;;2.76;100.00;99142.81;5111969;28;830;-65
2023/03/07 03:00:56;;;;;;;;;;;;;;;2.80;100.00;99130.78;5111925;28;1027;-66
2023/03/07 03:03:22;;;;;;;;;;;;;;;2.80;100.00;99130.00;5112060;28;1965;-65
2023/03/07 03:05:49;;;;;;;;;;;;;;;2.78;100.00;99126.84;5111862;28;807;-64
2023/03/07 03:08:16;;;;;;;;;;;;;;;2.72;100.00;99128.31;5111919;28;1006;-65
2023/03/07 03:10:42;;;;;;;;;;;;;;;2.56;100.00;99122.97;5111498;28;1390;-65
2023/03/07 03:13:08;;;;;;;;;;;;;;;2.41;100.00;99127.41;5111764;28;925;-67
2023/03/07 03:15:35;;;;;;;;;;;;;;;2.20;100.00;99125.91;5111788;28;851;-66
2023/03/07 03:18:02;;;;;;;;;;;;;;;2.10;100.00;99133.91;5111952;28;886;-67
2023/03/07 03:20:29;;;;;;;;;;;;;;;2.03;100.00;99129.09;5111696;28;859;-67
2023/03/07 03:22:56;;;;;;;;;;;;;;;1.97;100.00;99131.31;5111851;28;1979;-67
2023/03/07 03:25:23;;;;;;;;;;;;;;;1.92;100.00;99128.09;5111664;28;834;-67
2023/03/07 03:27:50;;;;;;;;;;;;;;;1.93;100.00;99130.47;5111746;28;834;-67
2023/03/07 03:30:16;;;;;;;;;;;;;;;2.02;100.00;99127.50;5114596;28;894;-67
2023/03/07 03:32:43;;;;;;;;;;;;;;;2.06;100.00;99131.09;5115678;28;893;-69
2023/03/07 03:35:10;;;;;;;;;;;;;;;1.95;100.00;99136.34;5115580;28;885;-69
2023/03/07 03:37:36;;;;;;;;;;;;;;;1.80;100.00;99135.28;5115601;28;827;-69
2023/03/07 03:40:05;;;;;;;;;;;;;;;1.74;100.00;99130.50;5115509;28;878;-67
2023/03/07 03:42:32;;;;;;;;;;;;;;;1.75;100.00;99126.59;5115380;28;1897;-69
2023/03/07 03:44:58;;;;;;;;;;;;;;;1.74;100.00;99135.94;5115410;28;847;-68
2023/03/07 03:47:25;;;;;;;;;;;;;;;1.61;100.00;99130.63;5115402;28;831;-68
2023/03/07 03:49:51;;;;;;;;;;;;;;;1.56;100.00;99139.09;5115353;28;910;-67
2023/03/07 03:52:19;;;;;;;;;;;;;;;1.74;100.00;99134.00;5113858;28;1232;-69
2023/03/07 03:54:46;;;;;;;;;;;;;;;2.03;100.00;99129.09;5115215;28;925;-67
2023/03/07 03:57:16;;;;;;;;;;;;;;;2.13;100.00;99131.22;5115241;28;858;-67
2023/03/07 03:59:44;;;;;;;;;;;;;;;2.25;100.00;99133.00;5115150;28;889;-69
2023/03/07 04:02:10;;;;;;;;;;;;;;;2.28;100.00;99131.47;5115124;28;1959;-67
2023/03/07 04:04:37;;;;;;;;;;;;;;;2.16;100.00;99127.00;5115044;28;874;-68
2023/03/07 04:07:03;;;;;;;;;;;;;;;2.05;100.00;99121.34;5114951;28;863;-68
2023/03/07 04:09:30;;;;;;;;;;;;;;;2.01;100.00;99118.56;5114863;28;1187;-68
2023/03/07 04:11:57;;;;;;;;;;;;;;;2.01;100.00;99115.06;5113593;28;1166;-68
2023/03/07 04:14:23;;;;;;;;;;;;;;;1.99;100.00;99111.91;5114887;27;835;-67
2023/03/07 04:16:50;;;;;;;;;;;;;;;1.84;100.00;99106.16;5114881;28;863;-67
2023/03/07 04:19:16;;;;;;;;;;;;;;;1.77;100.00;99116.13;5114818;27;847;-68
2023/03/07 04:21:43;;;;;;;;;;;;;;;1.69;100.00;99106.28;5114755;28;882;-69
2023/03/07 04:24:10;;;;;;;;;;;;;;;1.68;100.00;99102.75;5114582;28;1967;-70
2023/03/07 04:26:37;;;;;;;;;;;;;;;1.86;100.00;99114.00;5114615;28;898;-70
2023/03/07 04:29:03;;;;;;;;;;;;;;;2.00;100.00;99121.63;5114574;28;819;-69
2023/03/07 04:31:30;;;;;;;;;;;;;;;2.08;100.00;99119.84;5114615;28;866;-69
2023/03/07 04:33:57;;;;;;;;;;;;;;;2.16;100.00;99124.28;5113185;28;1166;-68
2023/03/07 04:36:24;;;;;;;;;;;;;;;2.12;100.00;99123.41;5114627;28;852;-68
2023/03/07 04:38:50;;;;;;;;;;;;;;;2.02;100.00;99127.50;5113021;28;1488;-68
2023/03/07 04:41:18;;;;;;;;;;;;;;;1.96;100.00;99123.50;5114372;28;886;-70
2023/03/07 04:43:45;;;;;;;;;;;;;;;1.98;100.00;99129.38;5114197;28;1932;-69
2023/03/07 04:46:13;;;;;;;;;;;;;;;1.86;100.00;99126.81;5114288;28;847;-70
2023/03/07 04:48:40;;;;;;;;;;;;;;;1.83;100.00;99131.84;5112822;28;1110;-69
2023/03/07 04:51:06;;;;;;;;;;;;;;;1.69;100.00;99128.06;5114133;28;838;-69
2023/03/07 04:53:33;;;;;;;;;;;;;;;1.55;100.00;99131.28;5114133;28;881;-69
2023/03/07 04:56:00;;;;;;;;;;;;;;;1.52;100.00;99119.16;5112773;28;1182;-67
2023/03/07 04:58:27;;;;;;;;;;;;;;;1.58;100.00;99119.66;5113993;28;842;-68
2023/03/07 05:00:55;;;;;;;;;;;;;;;1.74;100.00;99122.31;5114032;28;901;-68
2023/03/07 05:03:22;;;;;;;;;;;;;;;2.02;100.00;99117.41;5112569;28;1917;-69
2023/03/07 05:05:50;;;;;;;;;;;;;;;2.25;100.00;99122.09;5114081;28;849;-69
2023/03/07 05:08:17;;;;;;;;;;;;;;;2.33;100.00;99114.81;5113951;28;907;-70
2023/03/07 05:10:43;;;;;;;;;;;;;;;2.47;100.00;99112.31;5113486;28;1390;-70
2023/03/07 05:13:11;;;;;;;;;;;;;;;2.76;100.00;99118.25;5113685;28;882;-70
2023/03/07 05:15:37;;;;;;;;;;;;;;;3.14;100.00;99105.53;5113702;28;810;-69
2023/03/07 05:18:04;;;;;;;;;;;;;;;3.40;100.00;99115.63;5113602;28;811;-69
2023/03/07 05:20:36;;;;;;;;;;;;;;;3.60;100.00;99116.25;5113518;28;937;-68
2023/03/07 05:23:03;;;;;;;;;;;;;;;3.90;100.00;99121.69;5113468;28;1917;-69
2023/03/07 05:25:30;;;;;;;;;;;;;;;4.22;100.00;99113.00;5112386;28;1235;-68
2023/03/07 05:27:56;;;;;;;;;;;;;;;4.53;100.00;99128.16;5113443;28;843;-68
2023/03/07 05:30:21;;;;;;;;;;;;;;;4.77;100.00;99124.03;5113553;28;819;-68
2023/03/07 05:32:50;;;;;;;;;;;;;;;5.16;100.00;99122.72;5113639;28;855;-68
2023/03/07 05:35:23;;;;;;;;;;;;;;;5.59;100.00;99129.25;5113288;28;866;-69
2023/03/07 05:37:50;;;;;;;;;;;;;;;5.80;100.00;99123.03;5112090;28;1271;-68
2023/03/07 05:40:20;;;;;;;;;;;;;;;5.98;100.00;99127.84;5113444;28;889;-68
2023/03/07 05:42:48;;;;;;;;;;;;;;;6.01;100.00;99136.06;5113246;28;1889;-69
2023/03/07 05:45:14;;;;;;;;;;;;;;;6.14;100.00;99131.00;5113330;28;819;-68
2023/03/07 05:47:40;;;;;;;;;;;;;;;6.27;100.00;99134.97;5111868;28;946;-68
2023/03/07 05:50:08;;;;;;;;;;;;;;;6.33;100.00;99141.59;5112903;28;855;-68
2023/03/07 05:52:35;;;;;;;;;;;;;;;6.46;100.00;99143.97;5111197;28;1360;-68
2023/03/07 05:55:03;;;;;;;;;;;;;;;6.53;100.00;99150.28;5112910;27;835;-68
2023/03/07 05:57:29;;;;;;;;;;;;;;;6.61;100.00;99153.03;5112714;27;863;-67
2023/03/07 05:59:55;;;;;;;;;;;;;;;6.85;100.00;99151.44;5112766;28;891;-67
2023/03/07 06:02:22;;;;;;;;;;;;;;;7.05;100.00;99158.13;5113026;28;1954;-68
2023/03/07 06:04:48;;;;;;;;;;;;;;;7.26;100.00;99162.03;5112671;28;887;-68
2023/03/07 06:07:15;;;;;;;;;;;;;;;7.45;100.00;99167.09;5112733;28;827;-68
2023/03/07 06:09:41;;;;;;;;;;;;;;;7.36;100.00;99174.94;5112533;28;1176;-68
2023/03/07 06:12:09;;;;;;;;;;;;;;;7.59;100.00;99171.75;5112927;28;882;-68
2023/03/07 06:14:36;;;;;;;;;;;;;;;8.15;100.00;99169.97;5112473;28;900;-68
2023/03/07 06:17:02;;;;;;;;;;;;;;;8.86;100.00;99172.69;5112582;28;989;-68
2023/03/07 06:19:29;;;;;;;;;;;;;;;9.29;100.00;99177.81;5112389;28;880;-68
2023/03/07 06:21:56;;;;;;;;;;;;;;;9.46;100.00;99174.06;5112591;27;874;-68
2023/03/07 06:24:22;;;;;;;;;;;;;;;9.45;100.00;99178.00;5112552;28;1905;-68
2023/03/07 06:26:48;;;;;;;;;;;;;;;9.71;100.00;99181.31;5112605;28;988;-68
2023/03/07 06:29:15;;;;;;;;;;;;;;;9.90;100.00;99175.16;5112397;28;815;-68
2023/03/07 06:31:41;;;;;;;;;;;;;;;9.95;100.00;99169.19;5112972;28;791;-67
2023/03/07 06:34:09;;;;;;;;;;;;;;;9.89;100.00;99181.88;5112149;28;866;-68
2023/03/07 06:36:35;;;;;;;;;;;;;;;9.91;100.00;99185.00;5112812;28;784;-68
2023/03/07 06:39:02;;;;;;;;;;;;;;;9.95;100.00;99171.94;5112155;28;823;-67
2023/03/07 06:41:28;;;;;;;;;;;;;;;10.59;100.00;99186.88;5112414;28;902;-67
2023/03/07 06:43:55;;;;;;;;;;;;;;;11.09;100.00;99188.06;5112056;28;1906;-68
2023/03/07 06:46:21;;;;;;;;;;;;;;;11.39;100.00;99186.38;5112088;28;889;-69
2023/03/07 06:48:50;;;;;;;;;;;;;;;11.71;100.00;99183.00;5112149;28;827;-69
2023/03/07 06:51:17;;;;;;;;;;;;;;;11.70;100.00;99188.97;5111991;28;862;-68
2023/03/07 06:53:43;;;;;;;;;;;;;;;11.90;100.00;99189.78;5112053;28;854;-69
2023/03/07 06:56:10;;;;;;;;;;;;;;;12.26;100.00;99178.72;5111990;28;827;-68
2023/03/07 06:58:36;;;;;;;;;;;;;;;12.26;100.00;99180.72;5111919;28;884;-69
2023/03/07 07:01:03;;;;;;;;;;;;;;;12.28;100.00;99180.31;5111912;28;831;-68
2023/03/07 07:03:30;;;;;;;;;;;;;;;12.32;100.00;99179.00;5111821;28;1906;-69
2023/03/07 07:05:57;;;;;;;;;;;;;;;12.70;100.00;99175.78;5116016;28;918;-68
2023/03/07 07:08:24;;;;;;;;;;;;;;;13.34;100.00;99175.44;5116260;28;889;-66
2023/03/07 07:10:51;;;;;;;;;;;;;;;13.74;100.00;99166.81;5115907;28;1276;-69
2023/03/07 07:13:16;;;;;;;;;;;;;;;14.11;100.00;99167.38;5116040;28;827;-67
2023/03/07 07:15:43;;;;;;;;;;;;;;;14.34;97.60;99167.06;5116016;28;867;-68
2023/03/07 07:18:10;;;;;;;;;;;;;;;14.42;95.72;99156.47;5115883;28;871;-67
2023/03/07 07:20:45;;;;;;;;;;;;;;;14.42;96.50;99164.81;5116022;27;972;-67
2023/03/07 07:23:11;;;;;;;;;;;;;;;14.33;95.98;99159.16;5115870;28;1921;-67
2023/03/07 07:25:38;;;;;;;;;;;;;;;13.89;96.89;99163.19;5115944;28;858;-68
2023/03/07 07:28:08;;;;;;;;;;;;;;;14.14;96.71;99152.56;5116021;28;851;-68
2023/03/07 07:30:35;;;;;;;;;;;;;;;14.25;97.28;99153.03;5116299;28;878;-70
2023/03/07 07:33:01;;;;;;;;;;;;;;;14.33;95.87;99154.38;5115745;28;882;-70
2023/03/07 07:35:28;;;;;;;;;;;;;;;14.24;94.87;99151.47;5115562;28;839;-70
2023/03/07 07:37:54;;;;;;;;;;;;;;;13.81;98.18;99149.97;5115627;27;989;-71
2023/03/07 07:40:20;;;;;;;;;;;;;;;13.65;99.92;99157.13;5115708;28;886;-70
2023/03/07 07:42:55;;;;;;;;;;;;;;;13.80;98.04;99149.16;5115526;28;1947;-69
2023/03/07 07:45:21;;;;;;;;;;;;;;;13.72;97.75;99149.81;5113994;28;1202;-67
2023/03/07 07:47:48;;;;;;;;;;;;;;;13.81;96.32;99155.50;5115380;28;921;-67
2023/03/07 07:50:15;;;;;;;;;;;;;;;13.66;96.56;99152.38;5115311;28;831;-66
2023/03/07 07:52:42;;;;;;;;;;;;;;;13.77;97.35;99160.38;5115409;28;824;-67
2023/03/07 07:55:09;;;;;;;;;;;;;;;14.25;95.93;99166.91;5115442;28;1058;-68
2023/03/07 07:57:36;;;;;;;;;;;;;;;14.57;93.04;99163.19;5115159;28;846;-66
2023/03/07 08:00:03;;;;;;;;;;;;;;;14.59;93.37;99162.75;5115211;28;956;-67
2023/03/07 08:02:29;;;;;;;;;;;;;;;14.48;94.63;99160.28;5115055;28;1950;-67
2023/03/07 08:04:56;;;;;;;;;;;;;;;14.13;94.54;99157.34;5115079;28;838;-67
2023/03/07 08:07:22;;;;;;;;;;;;;;;14.26;95.22;99151.81;5115015;28;851;-67
2023/03/07 08:09:49;;;;;;;;;;;;;;;14.34;95.54;99150.38;5113463;28;1472;-65
2023/03/07 08:12:16;;;;;;;;;;;;;;;14.51;92.75;99148.28;5114983;28;879;-67
2023/03/07 08:14:42;;;;;;;;;;;;;;;14.64;94.13;99151.06;5114383;28;885;-66
2023/03/07 08:17:09;;;;;;;;;;;;;;;14.60;93.62;99144.84;5114805;28;846;-67
2023/03/07 08:19:35;;;;;;;;;;;;;;;14.81;92.17;99146.94;5114741;28;888;-67
2023/03/07 08:22:02;;;;;;;;;;;;;;;14.68;91.56;99137.84;5114729;28;902;-67
2023/03/07 08:24:29;;;;;;;;;;;;;;;14.65;92.05;99139.47;5114707;28;1968;-67
2023/03/07 08:26:55;;;;;;;;;;;;;;;14.87;91.59;99139.59;5114622;28;852;-67
2023/03/07 08:29:21;;;;;;;;;;;;;;;15.15;90.77;99137.06;5114639;28;835;-68
2023/03/07 08:31:50;;;;;;;;;;;;;;;15.49;87.74;99130.72;5114676;28;895;-68
2023/03/07 08:34:17;;;;;;;;;;;;;;;15.30;87.55;99140.16;5114515;28;919;-68
2023/03/07 08:36:44;;;;;;;;;;;;;;;15.09;87.62;99138.88;5114486;28;811;-67
2023/03/07 08:39:11;;;;;;;;;;;;;;;15.08;89.29;99140.09;5114375;28;889;-67
2023/03/07 08:41:37;;;;;;;;;;;;;;;14.87;88.24;99134.03;5114424;28;804;-67
2023/03/07 08:44:04;;;;;;;;;;;;;;;15.02;88.94;99134.31;5114246;28;1890;-67
2023/03/07 08:46:30;;;;;;;;;;;;;;;14.78;88.78;99138.69;5114235;28;878;-67
2023/03/07 08:49:01;;;;;;;;;;;;;;;14.47;91.09;99133.69;5114194;28;847;-67
2023/03/07 08:51:27;;;;;;;;;;;;;;;14.64;92.88;99145.50;5114793;28;862;-68
2023/03/07 08:53:54;;;;;;;;;;;;;;;15.14;88.82;99138.28;5114185;28;831;-67
2023/03/07 08:56:20;;;;;;;;;;;;;;;15.46;89.53;99137.16;5114126;28;914;-67
2023/03/07 08:58:47;;;;;;;;;;;;;;;15.47;89.19;99143.53;5113994;28;922;-67
2023/03/07 09:01:15;;;;;;;;;;;;;;;15.24;86.79;99131.56;5114108;28;890;-67
2023/03/07 09:03:41;;;;;;;;;;;;;;;15.42;88.84;99119.81;5113936;28;1952;-67
2023/03/07 09:06:13;;;;;;;;;;;;;;;15.59;86.53;99125.19;5113896;28;863;-67
2023/03/07 09:08:40;;;;;;;;;;;;;;;15.54;89.19;99125.78;5114095;28;925;-66
2023/03/07 09:11:11;;;;;;;;;;;;;;;15.61;87.08;99119.94;5113560;28;1279;-66
2023/03/07 09:13:44;;;;;;;;;;;;;;;15.66;87.63;99124.94;5113892;28;814;-66
2023/03/07 09:16:10;;;;;;;;;;;;;;;15.81;85.49;99125.22;5113618;28;846;-65
2023/03/07 09:18:38;;;;;;;;;;;;;;;15.49;86.45;99121.56;5113894;28;827;-67
2023/03/07 09:21:05;;;;;;;;;;;;;;;15.21;88.38;99115.00;5112250;28;1278;-65
2023/03/07 09:23:31;;;;;;;;;;;;;;;15.13;93.85;99113.69;5113490;28;1913;-66
2023/03/07 09:25:58;;;;;;;;;;;;;;;15.51;88.09;99119.91;5113365;28;827;-66
2023/03/07 09:28:25;;;;;;;;;;;;;;;15.47;88.06;99110.88;5112720;28;815;-66
2023/03/07 09:30:51;;;;;;;;;;;;;;;15.38;91.53;99107.25;5113430;28;914;-66
2023/03/07 09:33:17;;;;;;;;;;;;;;;15.58;87.66;99104.16;5113272;28;874;-67
2023/03/07 09:35:44;;;;;;;;;;;;;;;15.52;88.20;99103.97;5113359;28;827;-67
2023/03/07 09:38:10;;;;;;;;;;;;;;;15.48;88.06;99098.50;5113204;28;909;-67
2023/03/07 10:10:04;;;;;;;;;;;;;;;16.43;80.84;99057.50;5358664;22;1513;-56
2023/03/07 10:12:48;;;;;;;;;;;;;;;16.59;80.92;99056.47;5092229;28;834;-55
2023/03/07 10:15:30;;;;;;;;;;;;;;;16.44;80.06;99059.06;5092290;28;839;-55
2023/03/07 10:18:07;;;;;;;;;;;;;;;16.39;80.37;99054.88;5092069;28;855;-55
2023/03/07 10:20:43;;;;;;;;;;;;;;;16.68;80.27;99053.69;5092057;28;891;-55
2023/03/07 10:23:25;;;;;;;;;;;;;;;16.75;78.98;99045.03;5092058;28;1972;-55
2023/03/07 10:26:07;;;;;;;;;;;;;;;17.07;75.89;99040.91;5092019;28;828;-56
2023/03/07 10:28:37;;;;;;;;;;;;;;;17.16;74.91;99037.31;5091865;28;1141;-56
2023/03/07 10:31:16;;;;;;;;;;;;;;;17.19;69.15;99030.78;5091935;28;906;-55
2023/03/07 10:33:45;;;;;;;;;;;;;;;17.20;68.34;99023.97;5091870;28;903;-55
2023/03/07 10:36:14;;;;;;;;;;;;;;;17.30;67.09;99017.16;5073785;28;1303;-55
2023/03/07 10:38:43;;;;;;;;;;;;;;;17.08;66.73;99014.50;5091570;28;819;-56
2023/03/07 10:41:14;;;;;;;;;;;;;;;17.08;66.30;99008.16;5091805;28;855;-56
2023/03/07 10:43:41;;;;;;;;;;;;;;;16.96;67.10;99004.28;5091685;28;1918;-56
2023/03/07 10:46:12;;;;;;;;;;;;;;;17.03;64.88;99008.78;5091758;28;831;-56
2023/03/07 10:48:41;;;;;;;;;;;;;;;17.13;64.40;98991.56;5092016;28;764;-56
2023/03/07 10:51:17;;;;;;;;;;;;;;;17.32;62.61;98989.50;5092000;28;883;-56
2023/03/07 10:53:43;;;;;;;;;;;;;;;17.55;61.58;98985.25;5091673;28;823;-56
2023/03/07 10:56:14;;;;;;;;;;;;;;;17.79;60.57;98981.00;5091861;28;899;-56
2023/03/07 10:58:58;;;;;;;;;;;;;;;18.03;57.36;98976.25;5091576;28;800;-56
2023/03/07 11:01:26;;;;;;;;;;;;;;;18.01;57.50;98975.97;5091555;28;879;-56
2023/03/07 11:03:52;;;;;;;;;;;;;;;17.93;58.21;98969.16;5091435;28;1890;-56
2023/03/07 11:06:38;;;;;;;;;;;;;;;17.83;58.33;98976.03;5091567;28;831;-57
2023/03/07 11:09:07;;;;;;;;;;;;;;;17.93;57.14;98967.13;5091308;28;1268;-56
2023/03/07 11:11:35;;;;;;;;;;;;;;;18.14;58.10;98959.72;5091474;28;819;-56
2023/03/07 11:14:09;;;;;;;;;;;;;;;18.27;55.93;98953.91;5091480;28;875;-56
2023/03/07 11:16:56;;;;;;;;;;;;;;;18.20;56.11;98950.69;5091416;28;878;-57
2023/03/07 11:19:29;;;;;;;;;;;;;;;18.08;56.47;98953.25;5091317;28;1455;-56
2023/03/07 11:21:56;;;;;;;;;;;;;;;18.29;54.51;98942.25;5091614;28;815;-56
2023/03/07 11:24:29;;;;;;;;;;;;;;;18.39;53.29;98946.50;5091463;28;1984;-56
2023/03/07 11:26:56;;;;;;;;;;;;;;;18.60;51.42;98941.09;5091220;28;858;-57
2023/03/07 11:29:33;;;;;;;;;;;;;;;18.27;51.67;98941.94;5091378;28;867;-56
2023/03/07 11:32:06;;;;;;;;;;;;;;;18.21;54.15;98941.06;5091318;28;899;-57
2023/03/07 11:34:32;;;;;;;;;;;;;;;18.26;52.96;98934.78;5091289;28;843;-57
2023/03/07 11:37:02;;;;;;;;;;;;;;;18.49;52.96;98936.81;5091371;28;828;-57
2023/03/07 11:39:28;;;;;;;;;;;;;;;18.41;51.36;98923.66;5091182;28;804;-57
2023/03/07 11:41:57;;;;;;;;;;;;;;;17.72;52.29;98931.81;5091451;28;882;-56
2023/03/07 11:44:35;;;;;;;;;;;;;;;17.91;52.34;98922.09;5091364;28;1894;-57
2023/03/07 11:47:20;;;;;;;;;;;;;;;18.04;51.48;98918.31;5091458;28;859;-56
2023/03/07 11:50:05;;;;;;;;;;;;;;;18.11;50.05;98920.75;5091378;28;863;-57
2023/03/07 11:52:31;;;;;;;;;;;;;;;18.22;51.66;98900.63;5076695;28;1329;-57
2023/03/07 11:55:03;;;;;;;;;;;;;;;18.53;49.54;98908.66;5094892;28;867;-57
2023/03/07 11:57:42;;;;;;;;;;;;;;;18.82;47.93;98902.38;5076784;28;859;-56
2023/03/07 12:00:27;;;;;;;;;;;;;;;18.91;47.33;98905.06;5094821;28;950;-57
2023/03/07 12:03:13;;;;;;;;;;;;;;;19.32;45.48;98904.50;5094794;28;1882;-57
2023/03/07 12:05:56;;;;;;;;;;;;;;;18.96;45.66;98906.44;5094946;28;827;-57
2023/03/07 12:08:41;;;;;;;;;;;;;;;18.34;44.79;98900.41;5094915;28;1068;-56
2023/03/07 12:11:22;;;;;;;;;;;;;;;18.49;46.00;98894.06;5094430;28;1314;-57
2023/03/07 12:13:53;;;;;;;;;;;;;;;18.62;46.22;98891.78;5094529;28;890;-57
2023/03/07 12:16:39;;;;;;;;;;;;;;;18.91;48.16;98893.88;5094529;28;917;-57
2023/03/07 12:19:11;;;;;;;;;;;;;;;19.22;45.32;98891.84;5094449;28;814;-57
2023/03/07 12:21:53;;;;;;;;;;;;;;;18.64;46.68;98892.06;5094342;28;926;-57
2023/03/07 12:24:39;;;;;;;;;;;;;;;18.56;46.51;98888.88;5094526;28;1922;-57
2023/03/07 12:27:14;;;;;;;;;;;;;;;18.31;47.17;98883.81;5094237;28;1078;-56
2023/03/07 12:29:43;;;;;;;;;;;;;;;18.06;47.21;98885.84;5076052;28;2308;-57
2023/03/07 12:32:18;;;;;;;;;;;;;;;17.86;48.53;98883.63;5094403;28;875;-57
2023/03/07 12:34:55;;;;;;;;;;;;;;;18.24;48.71;98887.72;5094010;28;907;-57
2023/03/07 12:37:29;;;;;;;;;;;;;;;17.85;49.10;98893.25;5094014;28;828;-56
2023/03/07 12:40:01;;;;;;;;;;;;;;;17.37;50.29;98883.97;5094128;28;871;-56
2023/03/07 12:42:31;;;;;;;;;;;;;;;17.72;51.37;98879.47;5093964;28;1972;-56
2023/03/07 12:45:10;;;;;;;;;;;;;;;17.90;50.73;98877.84;5093868;28;879;-56
2023/03/07 12:47:44;;;;;;;;;;;;;;;18.67;50.26;98873.53;5093849;28;890;-56
2023/03/07 12:50:38;;;;;;;;;;;;;;;19.49;48.37;98868.34;5075646;28;1302;-57
2023/03/07 12:53:24;;;;;;;;;;;;;;;20.07;46.43;98869.41;5090376;28;1920;-57
2023/03/07 12:56:03;;;;;;;;;;;;;;;20.38;45.14;98862.41;5079279;28;1301;-57
2023/03/07 12:58:46;;;;;;;;;;;;;;;21.15;44.99;98857.31;5093656;28;840;-57
2023/03/07 13:01:15;;;;;;;;;;;;;;;21.21;42.05;98863.75;5092905;28;910;-57
2023/03/07 13:04:00;;;;;;;;;;;;;;;21.13;42.81;98851.41;5092983;28;1894;-57
2023/03/07 13:06:27;;;;;;;;;;;;;;;20.29;43.00;98854.13;5093411;28;941;-57
2023/03/07 13:08:55;;;;;;;;;;;;;;;20.19;43.32;98856.31;5093285;28;1201;-58
2023/03/07 13:11:23;;;;;;;;;;;;;;;20.54;43.40;98850.56;5093756;28;831;-57
2023/03/07 13:13:54;;;;;;;;;;;;;;;21.05;41.16;98848.28;5093301;28;863;-57
2023/03/07 13:16:34;;;;;;;;;;;;;;;21.07;39.12;98856.97;5093991;28;783;-57
2023/03/07 13:19:19;;;;;;;;;;;;;;;20.74;39.89;98851.81;5093260;28;874;-57
2023/03/07 13:21:45;;;;;;;;;;;;;;;20.69;38.81;98847.69;5093221;28;871;-57
2023/03/07 13:24:48;;;;;;;;;;;;;;;19.70;38.39;98847.53;5093127;28;1910;-57
2023/03/07 13:27:14;;;;;;;;;;;;;;;18.23;41.45;98863.03;5011223;28;891;-56
2023/03/07 13:29:58;;;;;;;;;;;;;;;17.61;44.17;98868.06;5076840;28;1033;-57
2023/03/07 13:32:43;;;;;;;;;;;;;;;17.34;45.14;98869.72;5093004;28;843;-56
2023/03/07 13:35:10;;;;;;;;;;;;;;;17.16;46.62;98864.22;5092795;28;922;-56
2023/03/07 13:37:50;;;;;;;;;;;;;;;16.97;47.19;98865.50;5092897;28;820;-56
2023/03/07 13:40:25;;;;;;;;;;;;;;;16.75;48.40;98869.25;5092794;28;887;-56
2023/03/07 13:42:52;;;;;;;;;;;;;;;16.54;49.22;98866.16;5092736;28;1885;-56
2023/03/07 13:45:38;;;;;;;;;;;;;;;16.39;50.06;98870.81;5092684;28;835;-56